Time;durP1;ratioP1;P1;durP2;ratioP2;P2;SDS_P1;SDS_P2;PMS_P1;PMS_P2;Temp;Humidity;BMP_temperature;BMP_pressure;BME280_temperature;BME280_humidity;BME280_pressure;Samples;Min_cycle;Max_cycle;Signal;HPM_P1;HPM_P2
2023/07/18 00:00:43;;;;;;;0.10;0.10;;;15.50;99.90;;;;;;5007773;28;20115;-81
2023/07/18 00:03:10;;;;;;;0.88;0.45;;;15.50;99.90;;;;;;5045051;28;20052;-80
2023/07/18 00:05:37;;;;;;;0.68;0.20;;;15.50;99.90;;;;;;5009610;28;20045;-80
2023/07/18 00:08:04;;;;;;;0.30;0.30;;;15.50;99.90;;;;;;4989299;28;20037;-79
2023/07/18 00:10:31;;;;;;;0.77;0.40;;;15.50;99.90;;;;;;4995452;28;20073;-80
2023/07/18 00:12:59;;;;;;;0.52;0.30;;;15.50;99.90;;;;;;4995030;28;20051;-79
2023/07/18 00:15:26;;;;;;;0.93;0.55;;;15.50;99.90;;;;;;5005759;28;20049;-80
2023/07/18 00:17:52;;;;;;;0.45;0.30;;;15.50;99.90;;;;;;5003236;28;20056;-79
2023/07/18 00:20:22;;;;;;;0.40;0.38;;;15.50;99.90;;;;;;5010729;28;20593;-80
2023/07/18 00:22:49;;;;;;;0.28;0.20;;;15.50;1.00;;;;;;5012201;28;20052;-80
2023/07/18 00:25:19;;;;;;;0.17;0.15;;;15.50;99.90;;;;;;5010584;28;20072;-79
2023/07/18 00:27:47;;;;;;;0.80;0.20;;;15.50;99.90;;;;;;5006443;28;20068;-79
2023/07/18 00:30:14;;;;;;;1.77;0.20;;;15.40;1.00;;;;;;4995796;28;20048;-79
2023/07/18 00:32:45;;;;;;;0.60;0.30;;;15.40;1.00;;;;;;5024588;28;20079;-81
2023/07/18 00:35:15;;;;;;;0.28;0.20;;;15.40;1.00;;;;;;5007172;28;20144;-80
2023/07/18 00:37:42;;;;;;;0.20;0.20;;;15.40;1.00;;;;;;5015419;28;20052;-80
2023/07/18 00:40:14;;;;;;;1.23;0.30;;;15.30;1.00;;;;;;5007828;28;20045;-80
2023/07/18 00:42:45;;;;;;;0.73;0.45;;;15.30;1.00;;;;;;4990592;28;20053;-80
2023/07/18 00:45:12;;;;;;;0.95;0.30;;;15.30;1.00;;;;;;5005501;28;20041;-80
2023/07/18 00:47:41;;;;;;;0.70;0.22;;;15.30;1.00;;;;;;4989143;28;20047;-80
2023/07/18 00:50:11;;;;;;;0.98;0.40;;;15.30;1.00;;;;;;5013897;28;20040;-81
2023/07/18 00:52:43;;;;;;;1.52;0.50;;;15.30;1.00;;;;;;4995596;28;20053;-80
2023/07/18 00:55:11;;;;;;;0.43;0.30;;;15.20;1.00;;;;;;5005478;28;20053;-80
2023/07/18 00:57:38;;;;;;;0.60;0.28;;;15.20;1.00;;;;;;5025448;28;20080;-80
2023/07/18 01:00:09;;;;;;;0.35;0.28;;;15.10;1.00;;;;;;4995110;28;20107;-81
2023/07/18 01:02:37;;;;;;;1.30;0.28;;;15.10;1.00;;;;;;4992240;28;20103;-80
2023/07/18 01:05:04;;;;;;;0.40;0.20;;;15.10;1.00;;;;;;4995130;28;20053;-81
2023/07/18 01:07:31;;;;;;;1.20;0.35;;;15.00;1.00;;;;;;4988387;28;20356;-81
2023/07/18 01:10:23;;;;;;;1.88;0.50;;;14.90;1.00;;;;;;5009662;28;20037;-81
2023/07/18 01:12:55;;;;;;;1.17;0.60;;;14.80;1.00;;;;;;5033010;28;20132;-80
2023/07/18 01:15:22;;;;;;;0.40;0.30;;;14.70;1.00;;;;;;5010039;28;20057;-81
2023/07/18 01:17:49;;;;;;;0.55;0.40;;;14.70;99.90;;;;;;4992359;28;20454;-79
2023/07/18 01:20:18;;;;;;;1.23;0.40;;;14.70;99.90;;;;;;4995986;28;20068;-80
2023/07/18 01:22:46;;;;;;;0.30;0.30;;;14.70;99.90;;;;;;5027482;28;20132;-80
2023/07/18 01:25:19;;;;;;;0.90;0.40;;;14.70;99.90;;;;;;5014816;28;20103;-79
2023/07/18 01:27:48;;;;;;;0.70;0.40;;;14.70;98.80;;;;;;5005995;28;20136;-83
2023/07/18 01:30:16;;;;;;;0.60;0.40;;;14.70;97.40;;;;;;5008719;28;20056;-80
2023/07/18 01:32:44;;;;;;;0.43;0.30;;;14.70;81.50;;;;;;4999804;28;20052;-80
2023/07/18 01:35:11;;;;;;;0.40;0.30;;;14.70;52.70;;;;;;4992226;28;20469;-80
2023/07/18 01:37:38;;;;;;;0.60;0.30;;;14.60;96.50;;;;;;5025344;28;20044;-80
2023/07/18 01:40:07;;;;;;;0.55;0.20;;;14.60;99.90;;;;;;5000141;28;20347;-80
2023/07/18 01:42:35;;;;;;;0.75;0.40;;;14.60;99.90;;;;;;5011631;28;20926;-81
2023/07/18 01:45:04;;;;;;;1.02;0.32;;;14.60;99.90;;;;;;5008160;28;20057;-80
2023/07/18 01:47:31;;;;;;;1.80;0.40;;;14.60;95.30;;;;;;5008130;28;20049;-81
2023/07/18 01:49:59;;;;;;;0.50;0.30;;;14.50;99.90;;;;;;4991623;28;20241;-81
2023/07/18 01:52:27;;;;;;;1.48;0.38;;;14.50;99.90;;;;;;5010422;28;20063;-80
2023/07/18 01:54:58;;;;;;;0.95;0.40;;;14.50;99.90;;;;;;4993425;28;20137;-81
2023/07/18 01:57:30;;;;;;;0.15;0.15;;;14.50;99.90;;;;;;5010426;28;20130;-80
2023/07/18 02:00:00;;;;;;;0.50;0.20;;;14.50;99.90;;;;;;5007884;28;20057;-80
2023/07/18 02:02:30;;;;;;;0.63;0.30;;;14.50;93.60;;;;;;5009709;28;20057;-81
2023/07/18 02:04:58;;;;;;;0.30;0.30;;;14.50;27.60;;;;;;5010673;28;20045;-81
2023/07/18 02:07:25;;;;;;;0.55;0.40;;;14.40;23.80;;;;;;5015283;28;20088;-81
2023/07/18 02:09:52;;;;;;;0.38;0.30;;;14.40;69.50;;;;;;5031317;28;20057;-81
2023/07/18 02:12:19;;;;;;;0.60;0.40;;;14.30;79.20;;;;;;5014601;28;20106;-81
2023/07/18 02:14:46;;;;;;;0.82;0.30;;;14.30;97.50;;;;;;5030722;28;20123;-81
2023/07/18 02:17:13;;;;;;;0.57;0.30;;;14.30;93.80;;;;;;4997616;28;20140;-81
2023/07/18 02:19:40;;;;;;;0.82;0.32;;;14.30;99.90;;;;;;5021555;28;20642;-81
2023/07/18 02:22:07;;;;;;;0.80;0.32;;;14.30;93.70;;;;;;5014296;28;20102;-81
2023/07/18 02:24:34;;;;;;;0.47;0.38;;;14.30;99.90;;;;;;5017825;28;20071;-81
2023/07/18 02:27:01;;;;;;;1.27;0.40;;;14.20;34.40;;;;;;5014069;28;20053;-81
2023/07/18 02:29:28;;;;;;;0.32;0.20;;;14.10;52.00;;;;;;5013836;28;20610;-81
2023/07/18 02:31:55;;;;;;;1.05;0.30;;;14.00;97.70;;;;;;5013621;28;20055;-81
2023/07/18 02:34:22;;;;;;;1.25;0.45;;;14.00;99.90;;;;;;5049966;28;20055;-81
2023/07/18 02:36:49;;;;;;;0.22;0.20;;;13.90;99.90;;;;;;5014271;28;20118;-81
2023/07/18 02:39:16;;;;;;;0.20;0.20;;;13.80;99.90;;;;;;4997782;28;20045;-81
2023/07/18 02:41:42;;;;;;;0.70;0.40;;;13.70;99.90;;;;;;5019776;28;20044;-81
2023/07/18 02:44:10;;;;;;;1.17;0.55;;;13.70;99.90;;;;;;5030452;28;20052;-79
2023/07/18 02:46:37;;;;;;;0.30;0.28;;;13.60;99.90;;;;;;5021392;28;20076;-79
2023/07/18 02:49:04;;;;;;;0.68;0.40;;;13.70;99.90;;;;;;4996272;28;20068;-80
2023/07/18 02:51:31;;;;;;;0.77;0.38;;;13.70;99.90;;;;;;5020435;28;20061;-80
2023/07/18 02:53:58;;;;;;;0.38;0.32;;;13.70;99.90;;;;;;5016090;28;20037;-80
2023/07/18 02:56:25;;;;;;;0.73;0.40;;;13.70;99.90;;;;;;5040949;28;20056;-79
2023/07/18 02:58:52;;;;;;;1.08;0.40;;;13.60;99.90;;;;;;4997167;28;20075;-79
2023/07/18 03:01:19;;;;;;;0.73;0.30;;;13.60;99.90;;;;;;5030157;28;20065;-80
2023/07/18 03:03:47;;;;;;;0.98;0.45;;;13.70;99.90;;;;;;5011344;28;20048;-80
2023/07/18 03:06:16;;;;;;;1.17;0.28;;;13.70;99.90;;;;;;4997840;28;20496;-80
2023/07/18 03:08:43;;;;;;;1.42;0.47;;;13.60;99.90;;;;;;5021064;28;20527;-80
2023/07/18 03:11:10;;;;;;;0.45;0.38;;;13.50;99.90;;;;;;5013225;28;20123;-80
2023/07/18 03:13:37;;;;;;;0.40;0.30;;;13.50;99.90;;;;;;5016069;28;20083;-80
2023/07/18 03:16:04;;;;;;;0.60;0.40;;;13.50;99.90;;;;;;5020654;28;20057;-80
2023/07/18 03:18:32;;;;;;;0.70;0.30;;;13.40;99.90;;;;;;5029109;28;20052;-82
2023/07/18 03:20:59;;;;;;;0.40;0.30;;;13.30;99.90;;;;;;5013270;28;20041;-81
2023/07/18 03:23:26;;;;;;;0.88;0.40;;;13.40;99.90;;;;;;5016864;28;20045;-81
2023/07/18 03:25:52;;;;;;;0.80;0.40;;;13.40;1.00;;;;;;4996942;28;20527;-81
2023/07/18 03:28:20;;;;;;;0.52;0.30;;;13.40;1.00;;;;;;5028797;28;20085;-81
2023/07/18 03:30:47;;;;;;;1.30;0.30;;;13.30;1.00;;;;;;5013151;28;20052;-81
2023/07/18 03:33:15;;;;;;;0.28;0.28;;;13.30;1.00;;;;;;5025195;28;20122;-81
2023/07/18 03:35:42;;;;;;;0.20;0.20;;;13.30;1.00;;;;;;5013317;28;20041;-81
2023/07/18 03:38:09;;;;;;;0.20;0.20;;;13.30;1.00;;;;;;4994426;28;20045;-81
2023/07/18 03:40:36;;;;;;;0.47;0.20;;;13.30;1.00;;;;;;5029725;28;20068;-81
2023/07/18 03:43:03;;;;;;;0.25;0.20;;;13.30;1.00;;;;;;5046033;28;20057;-81
2023/07/18 03:45:30;;;;;;;0.50;0.20;;;13.20;1.00;;;;;;5035992;28;20052;-81
2023/07/18 03:47:57;;;;;;;0.35;0.25;;;13.20;1.00;;;;;;5010119;28;20041;-81
2023/07/18 03:50:24;;;;;;;0.17;0.17;;;13.00;1.00;;;;;;5029749;28;20045;-80
2023/07/18 03:52:51;;;;;;;0.28;0.20;;;13.00;1.00;;;;;;5009113;28;20507;-79
2023/07/18 03:55:18;;;;;;;0.40;0.30;;;12.90;1.00;;;;;;4996163;28;20060;-79
2023/07/18 03:57:45;;;;;;;0.68;0.55;;;12.90;1.00;;;;;;5012386;28;20041;-79
2023/07/18 04:00:18;;;;;;;0.30;0.30;;;12.80;99.00;;;;;;4996472;28;20156;-79
2023/07/18 04:02:46;;;;;;;0.30;0.30;;;12.80;99.90;;;;;;5016341;28;20114;-79
2023/07/18 04:05:20;;;;;;;0.70;0.30;;;12.90;99.90;;;;;;5026062;28;20061;-79
2023/07/18 04:07:47;;;;;;;0.73;0.32;;;12.90;99.90;;;;;;5023757;28;20045;-79
2023/07/18 04:10:14;;;;;;;0.47;0.30;;;12.90;99.90;;;;;;5029156;28;20080;-79
2023/07/18 04:12:41;;;;;;;0.88;0.50;;;12.90;99.90;;;;;;5012892;28;20060;-80
2023/07/18 04:15:09;;;;;;;0.50;0.30;;;12.90;99.90;;;;;;4996401;28;20144;-80
2023/07/18 04:17:35;;;;;;;0.60;0.20;;;12.80;99.90;;;;;;5012297;28;20041;-79
2023/07/18 04:20:04;;;;;;;0.60;0.20;;;12.70;99.90;;;;;;4996395;28;20045;-80
2023/07/18 04:22:31;;;;;;;0.95;0.35;;;12.70;99.90;;;;;;5012572;28;20052;-80
2023/07/18 04:24:58;;;;;;;0.28;0.28;;;12.60;99.90;;;;;;5031829;28;20160;-79
2023/07/18 04:27:27;;;;;;;2.15;0.30;;;12.60;99.90;;;;;;5027529;28;20061;-79
2023/07/18 04:29:55;;;;;;;0.40;0.20;;;12.60;99.90;;;;;;4996572;28;20079;-80
2023/07/18 04:32:22;;;;;;;0.52;0.32;;;12.60;99.90;;;;;;5028471;28;20053;-80
2023/07/18 04:34:49;;;;;;;0.57;0.32;;;12.60;99.90;;;;;;5030380;28;20411;-80
2023/07/18 04:37:16;;;;;;;0.32;0.20;;;12.60;99.90;;;;;;4996056;28;20426;-80
2023/07/18 04:39:42;;;;;;;0.40;0.32;;;12.60;99.90;;;;;;4995757;28;20041;-80
2023/07/18 04:42:11;;;;;;;0.40;0.30;;;12.60;99.90;;;;;;4992563;28;20041;-80
2023/07/18 04:44:38;;;;;;;0.52;0.32;;;12.60;99.90;;;;;;4992833;28;20045;-79
2023/07/18 04:47:05;;;;;;;0.55;0.30;;;12.60;99.90;;;;;;4994128;28;20061;-80
2023/07/18 04:49:32;;;;;;;0.20;0.20;;;12.60;99.90;;;;;;4990984;28;20440;-80
2023/07/18 04:51:59;;;;;;;0.50;0.38;;;12.70;1.00;;;;;;5026458;28;20051;-79
2023/07/18 04:54:26;;;;;;;1.10;0.35;;;12.70;1.00;;;;;;4996533;28;20373;-80
2023/07/18 04:56:53;;;;;;;0.20;0.20;;;12.80;1.00;;;;;;4993535;28;20071;-80
2023/07/18 04:59:21;;;;;;;0.30;0.20;;;12.90;1.00;;;;;;5011358;28;20049;-80
2023/07/18 05:01:55;;;;;;;1.05;0.30;;;12.90;1.00;;;;;;5009861;28;20135;-80
2023/07/18 05:04:22;;;;;;;0.45;0.40;;;13.00;1.00;;;;;;5038225;28;20594;-82
2023/07/18 05:06:49;;;;;;;0.65;0.30;;;13.00;1.00;;;;;;4996608;28;20083;-79
2023/07/18 05:09:19;;;;;;;0.47;0.32;;;13.10;1.00;;;;;;4989176;28;20136;-79
2023/07/18 05:11:46;;;;;;;0.40;0.40;;;13.10;1.00;;;;;;5030291;28;20672;-80
2023/07/18 05:14:12;;;;;;;0.60;0.32;;;13.10;1.00;;;;;;5017780;28;20045;-80
2023/07/18 05:16:40;;;;;;;0.60;0.40;;;13.20;1.00;;;;;;4999618;28;20053;-80
2023/07/18 05:19:07;;;;;;;1.52;0.52;;;13.30;1.00;;;;;;4991843;28;20142;-79
2023/07/18 05:21:34;;;;;;;0.60;0.55;;;13.50;99.90;;;;;;5023490;28;20109;-80
2023/07/18 05:24:01;;;;;;;1.00;0.60;;;13.60;99.90;;;;;;4991387;28;20072;-80
2023/07/18 05:26:28;;;;;;;0.38;0.30;;;13.70;99.90;;;;;;5008096;28;20044;-80
2023/07/18 05:28:55;;;;;;;0.77;0.47;;;13.80;99.90;;;;;;5004032;28;20167;-80
2023/07/18 05:31:22;;;;;;;0.63;0.40;;;13.90;99.90;;;;;;5011611;28;20040;-79
2023/07/18 05:33:50;;;;;;;2.28;0.70;;;13.90;99.90;;;;;;5002649;28;20128;-76
2023/07/18 05:36:17;;;;;;;1.33;0.38;;;14.00;99.90;;;;;;4996962;28;20049;-77
2023/07/18 05:38:47;;;;;;;0.60;0.30;;;14.10;99.90;;;;;;4997854;28;20052;-82
2023/07/18 05:41:14;;;;;;;0.88;0.30;;;14.20;99.90;;;;;;4999169;28;20128;-81
2023/07/18 05:43:42;;;;;;;0.28;0.25;;;14.20;99.90;;;;;;5003265;28;20056;-81
2023/07/18 05:46:09;;;;;;;0.52;0.40;;;14.30;99.90;;;;;;5021331;28;20136;-80
2023/07/18 05:48:36;;;;;;;0.50;0.30;;;14.40;99.90;;;;;;4990311;28;20049;-81
2023/07/18 05:51:03;;;;;;;0.80;0.40;;;14.50;99.90;;;;;;5000378;28;20088;-80
2023/07/18 05:53:30;;;;;;;0.60;0.52;;;14.60;74.10;;;;;;4990293;28;20452;-81
2023/07/18 05:55:57;;;;;;;0.77;0.40;;;14.60;22.80;;;;;;4999145;28;20041;-80
2023/07/18 05:58:24;;;;;;;0.68;0.43;;;14.70;41.10;;;;;;4994131;28;20076;-80
2023/07/18 06:00:51;;;;;;;0.20;0.20;;;14.80;1.00;;;;;;4988111;28;20064;-80
2023/07/18 06:03:18;;;;;;;0.70;0.50;;;14.90;1.00;;;;;;4981148;28;20099;-80
2023/07/18 06:05:54;;;;;;;0.45;0.30;;;15.00;1.00;;;;;;5013596;28;20216;-80
2023/07/18 06:08:24;;;;;;;0.70;0.40;;;15.10;1.00;;;;;;4974107;28;20136;-80
2023/07/18 06:10:56;;;;;;;0.35;0.35;;;15.30;1.00;;;;;;4981089;28;20136;-81
2023/07/18 06:13:23;;;;;;;0.30;0.22;;;15.40;99.90;;;;;;5006667;28;20061;-81
2023/07/18 06:15:50;;;;;;;0.70;0.40;;;15.50;99.90;;;;;;5025891;28;20118;-81
2023/07/18 06:18:17;;;;;;;0.70;0.38;;;15.60;99.90;;;;;;5036092;28;20637;-81
2023/07/18 06:20:47;;;;;;;0.55;0.30;;;15.70;99.90;;;;;;4977028;28;20077;-81
2023/07/18 06:23:14;;;;;;;0.20;0.20;;;15.80;99.90;;;;;;4984136;28;20439;-80
2023/07/18 06:25:41;;;;;;;0.50;0.40;;;15.90;99.90;;;;;;4996094;28;20045;-81
2023/07/18 06:28:08;;;;;;;0.60;0.30;;;16.00;99.90;;;;;;4988871;28;20563;-80
2023/07/18 06:30:36;;;;;;;0.45;0.25;;;16.10;66.20;;;;;;4986631;28;20127;-80
2023/07/18 06:33:03;;;;;;;2.35;0.60;;;16.20;1.00;;;;;;4998804;28;20139;-80
2023/07/18 06:35:32;;;;;;;0.35;0.25;;;16.30;99.90;;;;;;4994288;28;20113;-81
2023/07/18 06:37:59;;;;;;;0.70;0.40;;;16.30;99.90;;;;;;4978071;28;20037;-81
2023/07/18 06:40:25;;;;;;;1.27;0.47;;;16.40;99.90;;;;;;4990618;28;20060;-80
2023/07/18 06:42:52;;;;;;;0.40;0.40;;;16.50;99.90;;;;;;4984907;28;20496;-79
2023/07/18 06:45:19;;;;;;;0.90;0.50;;;16.60;99.90;;;;;;5008450;28;20057;-81
2023/07/18 06:47:46;;;;;;;0.63;0.50;;;16.70;99.90;;;;;;4991670;28;20053;-81
2023/07/18 06:50:16;;;;;;;1.67;0.52;;;16.80;1.00;;;;;;4994241;28;20049;-84
2023/07/18 06:52:43;;;;;;;0.47;0.38;;;16.90;99.90;;;;;;5032153;28;20114;-81
2023/07/18 06:55:10;;;;;;;0.98;0.28;;;17.00;99.90;;;;;;5009959;28;20048;-81
2023/07/18 06:57:38;;;;;;;0.20;0.20;;;17.00;99.90;;;;;;4991984;28;20128;-80
2023/07/18 07:00:11;;;;;;;0.35;0.30;;;17.20;99.90;;;;;;4990417;28;20179;-81
2023/07/18 07:02:38;;;;;;;1.08;0.30;;;17.30;1.00;;;;;;4995854;28;20404;-81
2023/07/18 07:05:05;;;;;;;0.85;0.52;;;17.30;1.00;;;;;;5025533;28;20126;-80
2023/07/18 07:07:32;;;;;;;1.58;0.43;;;17.40;1.00;;;;;;4981543;28;20056;-82
2023/07/18 07:10:01;;;;;;;0.65;0.30;;;17.50;1.00;;;;;;5007418;28;20052;-81
2023/07/18 07:12:32;;;;;;;0.25;0.25;;;17.60;99.90;;;;;;5003887;28;20049;-81
2023/07/18 07:15:03;;;;;;;0.75;0.30;;;17.60;99.90;;;;;;4994588;28;20075;-81
2023/07/18 07:17:31;;;;;;;0.55;0.30;;;17.80;99.90;;;;;;5007342;28;20090;-81
2023/07/18 07:19:58;;;;;;;0.60;0.40;;;17.90;99.90;;;;;;5013183;28;20099;-82
2023/07/18 07:22:25;;;;;;;1.65;0.52;;;18.10;99.90;;;;;;5009938;28;20163;-82
2023/07/18 07:24:52;;;;;;;0.75;0.40;;;18.30;92.20;;;;;;4989420;28;20322;-81
2023/07/18 07:27:19;;;;;;;0.32;0.20;;;18.30;25.30;;;;;;4990209;28;20045;-82
2023/07/18 07:29:46;;;;;;;1.25;0.47;;;18.40;20.00;;;;;;5026078;28;20051;-83
2023/07/18 07:32:13;;;;;;;0.75;0.47;;;18.70;6.80;;;;;;5005461;28;20068;-82
2023/07/18 07:34:40;;;;;;;0.75;0.40;;;18.70;1.00;;;;;;5030953;28;20064;-83
2023/07/18 07:37:08;;;;;;;0.25;0.22;;;18.90;1.00;;;;;;5021008;28;20044;-83
2023/07/18 07:39:35;;;;;;;0.20;0.20;;;19.10;1.00;;;;;;5033395;28;20050;-81
2023/07/18 07:42:02;;;;;;;0.63;0.30;;;19.20;1.00;;;;;;5015406;28;20115;-82
2023/07/18 07:44:30;;;;;;;1.27;0.57;;;19.30;1.00;;;;;;5015422;28;20075;-82
2023/07/18 07:46:59;;;;;;;0.40;0.20;;;19.50;1.00;;;;;;5011405;28;20057;-82
2023/07/18 07:49:26;;;;;;;0.30;0.22;;;19.50;1.00;;;;;;5015848;28;20433;-81
2023/07/18 07:51:53;;;;;;;0.22;0.20;;;19.70;1.00;;;;;;5027546;28;20695;-82
2023/07/18 07:54:19;;;;;;;0.15;0.15;;;19.70;1.00;;;;;;5036830;28;20213;-82
2023/07/18 07:56:48;;;;;;;0.63;0.32;;;19.80;1.00;;;;;;5018926;28;20041;-81
2023/07/18 07:59:15;;;;;;;0.65;0.30;;;19.90;1.00;;;;;;4988067;28;20052;-83
2023/07/18 08:01:41;;;;;;;0.90;0.30;;;20.00;1.00;;;;;;5009318;28;20125;-82
2023/07/18 08:04:09;;;;;;;0.68;0.30;;;20.20;1.00;;;;;;5014750;28;20193;-82
2023/07/18 08:06:36;;;;;;;0.10;0.10;;;20.30;1.00;;;;;;5038999;28;20049;-82
2023/07/18 08:09:04;;;;;;;0.90;0.38;;;20.50;1.00;;;;;;4991690;28;20050;-82
2023/07/18 08:11:31;;;;;;;0.98;0.30;;;20.40;1.00;;;;;;4990501;28;20053;-82
2023/07/18 08:13:58;;;;;;;0.77;0.30;;;20.40;1.00;;;;;;5003635;28;20042;-82
2023/07/18 08:16:25;;;;;;;0.57;0.28;;;20.50;1.00;;;;;;4990336;28;20049;-83
2023/07/18 08:18:52;;;;;;;1.15;0.20;;;20.50;1.00;;;;;;5010336;28;20548;-81
2023/07/18 08:21:19;;;;;;;0.60;0.32;;;20.50;1.00;;;;;;5026669;28;20106;-82
2023/07/18 08:23:46;;;;;;;0.22;0.20;;;20.60;1.00;;;;;;5004755;28;20132;-82
2023/07/18 08:26:14;;;;;;;0.88;0.40;;;20.70;1.00;;;;;;4987527;28;20511;-82
2023/07/18 08:28:41;;;;;;;0.68;0.30;;;20.70;1.00;;;;;;4990091;28;20059;-82
2023/07/18 08:31:08;;;;;;;0.68;0.32;;;20.70;1.00;;;;;;4994243;28;20053;-82
2023/07/18 08:33:34;;;;;;;0.30;0.30;;;20.70;1.00;;;;;;5005579;28;20057;-82
2023/07/18 08:36:01;;;;;;;0.45;0.30;;;20.80;1.00;;;;;;5006949;28;20050;-82
2023/07/18 08:38:28;;;;;;;0.20;0.20;;;21.00;1.00;;;;;;5004731;28;20057;-82
2023/07/18 08:40:58;;;;;;;0.50;0.30;;;21.00;1.00;;;;;;5036113;28;20049;-82
2023/07/18 08:43:25;;;;;;;0.88;0.50;;;21.10;1.00;;;;;;5005698;28;20205;-82
2023/07/18 08:45:52;;;;;;;0.93;0.40;;;21.10;1.00;;;;;;5024350;28;20050;-82
2023/07/18 08:48:19;;;;;;;0.45;0.30;;;21.00;1.00;;;;;;4995182;28;20061;-81
2023/07/18 08:50:46;;;;;;;1.00;0.47;;;21.10;1.00;;;;;;5026366;28;20053;-81
2023/07/18 08:53:13;;;;;;;1.08;0.40;;;21.30;1.00;;;;;;5033077;28;20041;-81
2023/07/18 08:55:40;;;;;;;1.77;0.65;;;21.30;1.00;;;;;;5011035;28;20045;-80
2023/07/18 08:58:07;;;;;;;1.10;0.38;;;21.40;1.00;;;;;;5044582;28;20138;-80
2023/07/18 09:00:34;;;;;;;0.90;0.43;;;21.30;1.00;;;;;;5014949;28;20053;-81
2023/07/18 09:03:00;;;;;;;0.52;0.30;;;21.40;1.00;;;;;;5024227;28;20052;-81
2023/07/18 09:05:32;;;;;;;0.20;0.20;;;21.50;1.00;;;;;;5029719;28;20080;-81
2023/07/18 09:07:59;;;;;;;0.63;0.40;;;21.50;1.00;;;;;;5042920;28;20448;-81
2023/07/18 09:10:26;;;;;;;1.02;0.40;;;21.70;1.00;;;;;;5030930;28;20045;-81
2023/07/18 09:12:54;;;;;;;0.55;0.28;;;21.70;1.00;;;;;;5008740;28;20048;-81
2023/07/18 09:15:21;;;;;;;1.20;0.47;;;21.90;1.00;;;;;;5025694;28;20045;-81
2023/07/18 09:17:55;;;;;;;0.70;0.40;;;22.00;1.00;;;;;;5010805;28;20090;-81
2023/07/18 09:20:23;;;;;;;1.00;0.30;;;22.00;1.00;;;;;;5046816;28;20173;-81
2023/07/18 09:22:59;;;;;;;1.27;0.47;;;22.10;1.00;;;;;;5026404;28;20052;-81
2023/07/18 09:25:27;;;;;;;0.95;0.47;;;22.20;1.00;;;;;;5011144;28;20056;-81
2023/07/18 09:27:54;;;;;;;0.65;0.40;;;22.30;1.00;;;;;;5019458;28;20643;-81
2023/07/18 09:30:42;;;;;;;0.68;0.40;;;22.40;1.00;;;;;;5015181;28;20060;-81
2023/07/18 09:33:09;;;;;;;0.38;0.30;;;22.50;1.00;;;;;;5014383;28;20053;-81
2023/07/18 09:35:37;;;;;;;0.50;0.25;;;22.60;1.00;;;;;;5041074;28;20352;-81
2023/07/18 09:38:05;;;;;;;0.30;0.20;;;22.70;1.00;;;;;;5000901;28;20057;-80
2023/07/18 09:40:32;;;;;;;0.73;0.32;;;22.90;1.00;;;;;;5034521;28;20630;-80
2023/07/18 09:42:58;;;;;;;0.90;0.40;;;23.00;1.00;;;;;;5015124;28;20044;-81
2023/07/18 09:45:27;;;;;;;0.95;0.50;;;23.20;1.00;;;;;;5029613;28;20589;-80
2023/07/18 09:47:54;;;;;;;0.68;0.30;;;23.30;1.00;;;;;;5034758;28;20053;-82
2023/07/18 09:50:21;;;;;;;1.50;0.57;;;23.40;1.00;;;;;;5026955;28;20108;-81
2023/07/18 09:52:51;;;;;;;1.67;0.30;;;23.50;1.00;;;;;;5035792;28;20080;-81
2023/07/18 09:55:24;;;;;;;0.65;0.30;;;23.60;1.00;;;;;;4974191;28;20103;-81
2023/07/18 09:57:51;;;;;;;;;;;23.50;1.00;;;;;;5005761;28;20054;-83
2023/07/18 10:00:18;;;;;;;1.50;0.40;;;23.60;1.00;;;;;;5015404;28;19924;-80
2023/07/18 10:02:45;;;;;;;1.58;0.40;;;23.60;1.00;;;;;;5011908;28;20588;-83
2023/07/18 10:05:14;;;;;;;0.52;0.20;;;23.50;1.00;;;;;;5008746;28;20048;-81
2023/07/18 10:07:41;;;;;;;0.80;0.50;;;23.40;1.00;;;;;;5013378;28;20049;-81
2023/07/18 10:10:09;;;;;;;0.47;0.40;;;23.40;1.00;;;;;;5062945;28;20145;-81
2023/07/18 10:12:55;;;;;;;0.98;0.28;;;23.50;1.00;;;;;;5006799;28;20049;-81
2023/07/18 10:15:22;;;;;;;0.45;0.32;;;23.70;1.00;;;;;;5044398;28;20140;-81
2023/07/18 10:17:49;;;;;;;0.40;0.30;;;23.70;1.00;;;;;;4993153;28;20069;-81
2023/07/18 10:20:23;;;;;;;1.02;0.43;;;23.80;1.00;;;;;;5004586;28;20052;-81
2023/07/18 10:22:55;;;;;;;0.85;0.50;;;23.60;1.00;;;;;;5061381;28;20412;-81
2023/07/18 10:25:23;;;;;;;0.35;0.20;;;23.60;1.00;;;;;;5012808;28;20048;-81
2023/07/18 10:27:50;;;;;;;0.57;0.40;;;23.60;1.00;;;;;;5037661;28;20056;-81
2023/07/18 10:30:19;;;;;;;0.35;0.32;;;23.90;1.00;;;;;;5013150;28;20136;-81
2023/07/18 10:32:56;;;;;;;0.75;0.43;;;24.20;1.00;;;;;;5029389;28;20049;-81
2023/07/18 10:35:27;;;;;;;0.50;0.40;;;24.40;1.00;;;;;;5014993;28;20060;-81
2023/07/18 10:37:58;;;;;;;0.57;0.40;;;24.30;1.00;;;;;;5032456;28;20110;-82
2023/07/18 10:40:36;;;;;;;0.43;0.40;;;24.30;1.00;;;;;;5033324;28;20055;-81
2023/07/18 10:43:04;;;;;;;0.55;0.32;;;24.10;1.00;;;;;;5014896;28;20056;-81
2023/07/18 10:45:36;;;;;;;0.80;0.40;;;24.10;1.00;;;;;;5032220;28;20492;-82
2023/07/18 10:48:10;;;;;;;0.70;0.50;;;24.10;1.00;;;;;;4995784;28;20439;-81
2023/07/18 10:50:37;;;;;;;0.50;0.28;;;24.30;1.00;;;;;;5045949;28;20131;-81
2023/07/18 10:53:04;;;;;;;1.05;0.40;;;24.40;1.00;;;;;;5009489;28;20494;-80
2023/07/18 10:55:31;;;;;;;0.40;0.40;;;24.70;1.00;;;;;;5012198;28;20635;-81
2023/07/18 10:57:58;;;;;;;1.27;0.57;;;25.30;1.00;;;;;;5027499;28;20053;-81
2023/07/18 11:00:25;;;;;;;0.50;0.38;;;25.50;1.00;;;;;;5027978;28;20802;-81
2023/07/18 11:02:52;;;;;;;0.63;0.25;;;25.50;1.00;;;;;;5033891;28;20595;-81
2023/07/18 11:05:21;;;;;;;0.70;0.28;;;25.60;1.00;;;;;;5028968;28;20518;-81
2023/07/18 11:07:48;;;;;;;0.50;0.32;;;25.50;1.00;;;;;;5044297;28;20060;-81
2023/07/18 11:10:15;;;;;;;0.60;0.32;;;25.80;1.00;;;;;;5029816;28;20048;-81
2023/07/18 11:12:42;;;;;;;0.30;0.30;;;25.90;1.00;;;;;;5030275;28;20529;-81
2023/07/18 11:15:10;;;;;;;0.50;0.38;;;25.90;1.00;;;;;;5031415;28;20080;-81
2023/07/18 11:17:41;;;;;;;1.55;0.45;;;25.70;1.00;;;;;;5014458;28;20048;-81
2023/07/18 11:20:10;;;;;;;0.47;0.30;;;25.60;1.00;;;;;;5048117;28;20056;-81
2023/07/18 11:22:37;;;;;;;0.70;0.45;;;25.60;1.00;;;;;;5046745;28;20048;-82
2023/07/18 11:25:05;;;;;;;0.50;0.30;;;25.40;1.00;;;;;;5044333;28;20594;-81
2023/07/18 11:27:32;;;;;;;0.50;0.28;;;25.40;1.00;;;;;;5031135;28;20068;-82
2023/07/18 11:30:08;;;;;;;0.50;0.35;;;25.50;1.00;;;;;;5003448;28;20054;-81
2023/07/18 11:32:37;;;;;;;1.08;0.60;;;25.40;1.00;;;;;;4999809;28;20054;-82
2023/07/18 11:35:06;;;;;;;0.73;0.40;;;25.20;1.00;;;;;;5047932;28;20135;-81
2023/07/18 11:37:35;;;;;;;0.35;0.20;;;25.30;1.00;;;;;;5011384;28;20447;-81
2023/07/18 11:40:08;;;;;;;0.40;0.30;;;25.40;1.00;;;;;;5017086;28;20135;-81
2023/07/18 11:42:43;;;;;;;0.50;0.38;;;25.40;1.00;;;;;;5011245;28;20414;-81
2023/07/18 11:45:10;;;;;;;0.75;0.30;;;25.10;1.00;;;;;;5027214;28;20864;-81
2023/07/18 11:47:44;;;;;;;0.65;0.40;;;25.20;1.00;;;;;;5029223;28;20182;-81
2023/07/18 11:50:12;;;;;;;0.68;0.32;;;25.30;1.00;;;;;;5018641;28;20064;-82
2023/07/18 11:52:49;;;;;;;0.47;0.30;;;25.30;1.00;;;;;;4985208;28;20178;-81
2023/07/18 11:55:16;;;;;;;0.52;0.38;;;25.20;1.00;;;;;;5031140;28;20048;-82
2023/07/18 11:57:43;;;;;;;0.30;0.30;;;25.10;1.00;;;;;;5013669;28;20048;-85
2023/07/18 12:00:14;;;;;;;0.70;0.50;;;25.10;1.00;;;;;;5029989;28;20048;-81
2023/07/18 12:02:43;;;;;;;0.65;0.40;;;25.20;1.00;;;;;;5013472;28;20048;-81
2023/07/18 12:05:14;;;;;;;0.57;0.38;;;25.10;1.00;;;;;;5031062;28;20049;-81
2023/07/18 12:07:43;;;;;;;0.30;0.30;;;25.00;1.00;;;;;;5030037;28;20105;-81
2023/07/18 12:10:10;;;;;;;0.50;0.35;;;25.00;1.00;;;;;;5014045;28;20059;-81
2023/07/18 12:12:40;;;;;;;0.50;0.30;;;25.10;1.00;;;;;;5042846;28;20429;-81
2023/07/18 12:15:08;;;;;;;1.00;0.40;;;25.30;1.00;;;;;;5046570;28;20071;-82
2023/07/18 12:17:36;;;;;;;0.95;0.30;;;25.50;1.00;;;;;;5029802;28;20060;-81
2023/07/18 12:20:04;;;;;;;0.35;0.32;;;25.50;1.00;;;;;;5014394;28;20048;-81
2023/07/18 12:22:31;;;;;;;0.38;0.20;;;25.50;1.00;;;;;;5030130;28;20063;-82
2023/07/18 12:25:01;;;;;;;0.40;0.40;;;25.60;1.00;;;;;;5026581;28;20437;-81
2023/07/18 12:27:28;;;;;;;0.82;0.40;;;25.80;1.00;;;;;;5010451;28;20048;-81
2023/07/18 12:29:55;;;;;;;0.65;0.30;;;26.10;1.00;;;;;;5017612;28;20470;-81
2023/07/18 12:32:22;;;;;;;0.98;0.40;;;26.30;1.00;;;;;;5044405;28;20474;-81
2023/07/18 12:34:54;;;;;;;0.88;0.60;;;26.60;1.00;;;;;;5031449;28;20179;-81
2023/07/18 12:37:21;;;;;;;2.35;0.70;;;26.70;1.00;;;;;;5045712;28;20053;-82
2023/07/18 12:39:48;;;;;;;1.15;0.63;;;26.80;1.00;;;;;;5045855;28;20392;-81
2023/07/18 12:42:15;;;;;;;0.90;0.52;;;27.40;1.00;;;;;;5048336;28;20112;-82
2023/07/18 12:44:46;;;;;;;1.45;0.50;;;28.20;1.00;;;;;;5045280;28;20674;-82
2023/07/18 12:47:13;;;;;;;1.60;0.40;;;28.20;1.00;;;;;;5029844;28;20056;-82
2023/07/18 12:49:42;;;;;;;1.05;0.40;;;27.70;1.00;;;;;;5013731;28;20060;-82
2023/07/18 12:52:12;;;;;;;0.90;0.52;;;27.50;1.00;;;;;;5014484;28;20461;-81
2023/07/18 12:54:40;;;;;;;0.32;0.30;;;27.40;1.00;;;;;;5029264;28;20044;-81
2023/07/18 12:57:09;;;;;;;0.40;0.40;;;27.70;1.00;;;;;;5013158;28;20503;-82